Relevés horaires Laegern (Suisse)


Relevés horaires à Laegern - Lundi 20 Avr. 2026
Heure UTC1 Température [°C] Vent [km/h] Hum. [%] Pres.4 [hPa] Visi. [Km] Nébu. [octa] Préc.5 [mm] Cond.
2m. Res. Ros. Dir.2 Vit. Moy. Raf.3
23:00 6.1 1.7 -1.4 N 27.8 -- 40.7 59 850(0.4/3h) -- -- -- --
22:00 6.5 1.9 -1.7 NNE 31.5 -- 44.4 56 850(0.7/3h) -- -- -- --
21:00 7.0 2.5 0.1 NNE 31.5 -- 42.6 61 850(0.8/3h) -- -- -- --
20:00 8.2 4.4 0.9 NNE 27.8 -- 40.7 60 850(0.8/3h) -- -- -- --
19:00 9.0 6.1 1.2 N 20.4 -- 27.8 58 850(0.2/3h) -- -- -- --
18:00 9.5 7.1 0.9 N 16.7 -- 27.8 55 850(0.0/3h) -- -- -- --
17:00 11.2 10.5 -0.5 N 7.4 -- 13.0 44 850(-0.3/3h) -- -- -- --
16:00 11.6 10.7 -0.6 N 9.3 -- 13.0 43 850(-0.6/3h) -- -- -- --
15:00 11.7 11.5 -0.6 N 5.6 -- 18.5 43 850(-0.9/3h) -- -- -- --
14:00 11.0 10.3 -0.5 NE 7.4 -- 18.5 45 850(-1.1/3h) -- -- -- --
13:00 10.8 9.7 -0.5 NNE 9.3 -- 18.5 45 850(-0.9/3h) -- -- -- --
12:00 10.0 9.1 -0.5 NNO 7.4 -- 27.8 48 850(-0.8/3h) -- -- -- --
11:00 9.4 8 0.2 N 9.3 -- 27.8 53 850(-0.4/3h) -- -- -- --
10:00 8.4 6.2 0.8 NNE 13.0 -- 22.2 59 850(-0.1/3h) -- -- -- --
09:00 7.3 4.6 1.0 N 14.8 -- 27.8 64 850(0.3/3h) -- -- -- --
08:00 6.4 3.2 0.5 NNE 16.7 -- 27.8 66 850(0.3/3h) -- -- -- --
07:00 5.0 1 0.1 N 20.4 -- 25.9 71 850(0.3/3h) -- -- -- --
06:00 4.6 0.5 -0.3 N 20.4 -- 31.5 70 850(-0.3/3h) -- -- -- --
05:00 4.7 0.9 -0.8 NNE 18.5 -- 27.8 67 850(-0.5/3h) -- -- -- --
04:00 5.0 0.6 -1.1 NNE 24.1 -- 29.6 65 850(-0.9/3h) -- -- -- --
03:00 5.3 1 -0.5 NE 24.1 -- 31.5 66 850(-1.0/3h) -- -- -- --
02:00 5.5 1.1 -0.2 NE 25.9 -- 31.5 67 850(-1.3/3h) -- -- -- --
01:00 6.1 2 -- NNE 24.1 -- 31.5 -- 850(-1.3/3h) -- -- -- --
00:00 6.3 2.3 0.6 NNE 24.1 -- 44.4 67 850(-0.8/3h) -- -- -- --

1 Coordinated Universal Time. Actuellement il est 00:00 locale et 22:00 UTC.

2 Le vent souffle depuis la direction indiquée vers la direction oposée.

3 Les rafales max. sont disponible 40 min après l'heure du relevé.

4 Pour les stations d'altitude (plus de 600m) le géopotentiel du niveau le plus proche de la pression obligatoire est indiqué.

5 Les stations disposant d'un diffuseur peuvent indiquer "trace". Cela signifie que des précipitations ont touchés le sol mais que la quantité est inférieure à 0.1 mm.

Copyright

Les données affichées sur cette page sont la propriété exclusive de Météo Suisse.

Récapitulatif de la journée
Température [°C] Vent [km/h] Ensoleillement4 [h] Precipitations totale5 [mm] Pression [Hpa]
Min1 Max.2 Moy.3 Max. Min Max.
4.6 11.7 0 44.4 8 h 18 min 0 850.0 850.0

1 Température minimale relevée entre 18:00 UTC la veille et 18:00 UTC le jour donné.

2 Température maximale relevée entre 06:00 UTC le jour donné et 06:00 UTC le lendemain.

3 Vent moyen de la journée basé sur les relevés horaires.

4 Ensoleillement en heures relevé entre 06:00 UTC la veille et 06:00 UTC le jour donné.

5 Précipitations totales tombées entre 06:00 UTC la jour donné et 06:00 UTC le lendemain.

Graphiques horaires